Time;durP1;ratioP1;P1;durP2;ratioP2;P2;SDS_P1;SDS_P2;PMS_P1;PMS_P2;Temp;Humidity;BMP_temperature;BMP_pressure;BME280_temperature;BME280_humidity;BME280_pressure;Samples;Min_cycle;Max_cycle;Signal;HPM_P1;HPM_P2
2022/03/17 00:00:19;;;;;;;10.60;3.33;;;;;;;-3.40;39.96;101688.75;5008209;28;20060;-67
2022/03/17 00:02:45;;;;;;;7.90;2.80;;;;;;;-3.35;40.48;101696.34;5013500;28;20057;-66
2022/03/17 00:05:13;;;;;;;11.07;3.50;;;;;;;-3.36;40.35;101698.22;5012818;28;20045;-67
2022/03/17 00:07:42;;;;;;;9.32;3.20;;;;;;;-3.33;40.33;101700.56;5013425;28;20118;-67
2022/03/17 00:10:14;;;;;;;9.23;3.58;;;;;;;-3.34;40.83;101698.88;5012742;28;20054;-66
2022/03/17 00:12:43;;;;;;;9.73;3.30;;;;;;;-3.38;40.07;101691.28;5013884;28;20084;-66
2022/03/17 00:15:10;;;;;;;9.43;3.42;;;;;;;-3.38;40.24;101700.28;5008159;28;20200;-66
2022/03/17 00:17:37;;;;;;;14.35;4.93;;;;;;;-3.39;40.66;101700.47;5011530;28;20564;-66
2022/03/17 00:20:07;;;;;;;9.68;4.20;;;;;;;-3.45;40.40;101696.63;5011606;28;20148;-67
2022/03/17 00:22:34;;;;;;;13.68;3.53;;;;;;;-3.48;40.88;101694.28;5013063;28;20145;-66
2022/03/17 00:25:01;;;;;;;9.30;3.20;;;;;;;-3.52;41.13;101700.31;5011269;28;20049;-66
2022/03/17 00:27:28;;;;;;;7.85;3.58;;;;;;;-3.53;40.36;101704.88;5012933;28;20049;-65
2022/03/17 00:29:56;;;;;;;8.15;3.60;;;;;;;-3.53;40.55;101694.00;5011886;28;20053;-66
2022/03/17 00:32:24;;;;;;;7.85;3.42;;;;;;;-3.56;40.92;101694.38;5009266;28;20060;-67
2022/03/17 00:37:37;;;;;;;7.68;3.40;;;;;;;-3.56;40.81;101705.25;5011539;28;20481;-66
2022/03/17 00:40:05;;;;;;;8.50;4.03;;;;;;;-3.52;40.79;101706.59;5011361;28;20148;-67
2022/03/17 00:42:32;;;;;;;11.75;4.03;;;;;;;-3.51;40.77;101696.53;5012701;28;20412;-67
2022/03/17 00:44:59;;;;;;;7.30;3.47;;;;;;;-3.61;41.78;101696.00;5014804;28;20145;-66
2022/03/17 00:47:26;;;;;;;10.05;3.15;;;;;;;-3.61;41.54;101712.31;5028835;28;20136;-66
2022/03/17 00:49:53;;;;;;;11.52;4.15;;;;;;;-3.67;42.11;101713.06;5026047;28;20481;-66
2022/03/17 00:52:20;;;;;;;14.90;3.97;;;;;;;-3.68;42.08;101712.22;5031579;28;20080;-66
2022/03/17 00:54:47;;;;;;;9.32;3.17;;;;;;;-3.68;41.88;101717.66;5031321;28;20543;-66
2022/03/17 00:57:14;;;;;;;12.80;3.60;;;;;;;-3.70;41.92;101714.28;5029539;28;20072;-66
2022/03/17 00:59:41;;;;;;;8.25;3.72;;;;;;;-3.74;42.19;101723.00;5026201;28;20045;-66
2022/03/17 01:02:09;;;;;;;13.18;4.25;;;;;;;-3.74;41.69;101723.84;5029999;28;20089;-66
2022/03/17 01:04:36;;;;;;;6.90;3.08;;;;;;;-3.80;42.52;101722.72;5032106;28;20500;-66
2022/03/17 01:07:04;;;;;;;10.65;3.45;;;;;;;-3.84;42.26;101734.16;5030637;28;20085;-66
2022/03/17 01:09:32;;;;;;;10.23;3.85;;;;;;;-3.91;42.30;101733.19;5014857;28;20095;-66
2022/03/17 01:12:00;;;;;;;9.30;3.63;;;;;;;-3.91;41.87;101733.19;5013998;28;20053;-66
2022/03/17 01:14:27;;;;;;;10.20;3.20;;;;;;;-3.91;42.70;101730.47;5031825;28;20045;-67
2022/03/17 01:16:55;;;;;;;11.63;3.60;;;;;;;-3.90;42.61;101726.75;5030466;28;20111;-66
2022/03/17 01:19:22;;;;;;;12.68;3.97;;;;;;;-3.89;41.87;101731.13;5031591;28;20107;-67
2022/03/17 01:21:50;;;;;;;13.05;4.07;;;;;;;-3.91;42.28;101733.19;5030306;28;20555;-66
2022/03/17 01:24:18;;;;;;;6.40;3.35;;;;;;;-3.94;42.11;101733.56;5031348;28;20455;-66
2022/03/17 01:26:45;;;;;;;10.88;3.70;;;;;;;-3.95;42.08;101732.72;5012757;28;20432;-66
2022/03/17 01:29:14;;;;;;;9.35;3.75;;;;;;;-3.97;42.08;101739.34;5027949;28;20053;-66
2022/03/17 01:31:42;;;;;;;10.95;4.40;;;;;;;-3.98;42.49;101738.53;5014285;28;20072;-66
2022/03/17 01:34:09;;;;;;;7.60;3.55;;;;;;;-3.97;42.22;101734.78;5030788;28;20058;-67
2022/03/17 01:36:36;;;;;;;8.63;3.78;;;;;;;-3.92;42.52;101743.22;5025603;28;20049;-66
2022/03/17 01:39:03;;;;;;;9.23;3.78;;;;;;;-3.90;42.33;101751.22;5031164;28;20045;-67
2022/03/17 01:41:30;;;;;;;10.32;3.80;;;;;;;-3.89;42.70;101747.44;5030906;28;20064;-66
2022/03/17 01:43:57;;;;;;;14.98;3.47;;;;;;;-3.90;42.20;101746.59;5028810;28;20580;-67
2022/03/17 01:46:24;;;;;;;12.85;4.07;;;;;;;-3.96;42.64;101741.91;5030620;28;20071;-66
2022/03/17 01:48:51;;;;;;;9.27;3.72;;;;;;;-3.95;42.87;101754.47;5010662;28;20083;-66
2022/03/17 01:51:18;;;;;;;12.13;4.03;;;;;;;-4.00;42.85;101748.75;5030253;28;20580;-67
2022/03/17 01:53:45;;;;;;;10.77;3.33;;;;;;;-3.99;42.84;101746.88;5028832;28;20153;-67
2022/03/17 01:56:12;;;;;;;11.85;3.90;;;;;;;-3.99;42.65;101750.41;5030669;28;20485;-66
2022/03/17 01:58:41;;;;;;;8.43;3.25;;;;;;;-3.99;42.88;101750.41;5012511;28;20136;-66
2022/03/17 02:01:09;;;;;;;7.97;4.30;;;;;;;-3.97;42.86;101742.06;5030257;28;20084;-67
2022/03/17 02:03:37;;;;;;;13.82;4.32;;;;;;;-3.95;42.94;101753.63;5028881;28;20425;-66
2022/03/17 02:06:04;;;;;;;12.25;4.38;;;;;;;-4.02;43.32;101752.69;5031404;28;20128;-66
2022/03/17 02:08:31;;;;;;;9.88;3.80;;;;;;;-4.02;43.11;101758.13;5030356;28;20049;-66
2022/03/17 02:13:44;;;;;;;8.30;4.03;;;;;;;-4.06;43.40;101762.22;5029586;28;20045;-66
2022/03/17 02:16:10;;;;;;;8.18;3.97;;;;;;;-4.06;43.16;101762.22;5030997;28;20071;-64
2022/03/17 02:18:37;;;;;;;10.13;4.13;;;;;;;-4.06;43.13;101770.38;5013144;28;20046;-64
2022/03/17 02:21:05;;;;;;;15.65;4.07;;;;;;;-4.07;42.95;101776.84;5027464;28;20068;-64
2022/03/17 02:26:20;;;;;;;11.02;4.43;;;;;;;-4.09;43.68;101773.44;5029491;28;20084;-65
2022/03/17 02:28:47;;;;;;;10.00;3.77;;;;;;;-4.11;43.37;101778.25;5029717;28;20496;-66
2022/03/17 02:31:15;;;;;;;9.02;4.05;;;;;;;-4.16;43.85;101776.06;5030906;28;20057;-65
2022/03/17 02:33:42;;;;;;;9.65;4.22;;;;;;;-4.19;43.54;101772.88;5029349;28;20099;-66
2022/03/17 02:36:09;;;;;;;7.93;3.45;;;;;;;-4.26;43.79;101774.63;5031088;28;20085;-65
2022/03/17 02:38:36;;;;;;;8.00;3.40;;;;;;;-4.27;43.64;101775.66;5029845;28;20046;-65
2022/03/17 02:41:03;;;;;;;11.27;3.90;;;;;;;-4.32;44.03;101772.66;5030582;28;20136;-65
2022/03/17 02:43:30;;;;;;;8.27;3.95;;;;;;;-4.36;43.91;101776.75;5030482;28;20136;-65
2022/03/17 02:45:57;;;;;;;11.40;3.95;;;;;;;-4.43;44.41;101771.22;5029474;28;20521;-65
2022/03/17 02:48:24;;;;;;;10.45;3.78;;;;;;;-4.43;44.58;101781.22;5028449;28;20052;-65
2022/03/17 02:50:51;;;;;;;9.95;3.83;;;;;;;-4.42;44.08;101788.31;5027278;28;20053;-65
2022/03/17 02:53:18;;;;;;;10.27;3.60;;;;;;;-4.43;44.18;101794.78;5030695;28;20136;-65
2022/03/17 02:55:46;;;;;;;15.88;4.63;;;;;;;-4.40;43.79;101797.16;5029844;28;20053;-65
2022/03/17 02:58:13;;;;;;;8.27;4.10;;;;;;;-4.38;44.05;101795.09;5030335;28;20072;-65
2022/03/17 03:00:41;;;;;;;6.53;3.30;;;;;;;-4.39;44.36;101802.41;5029288;28;20073;-65
2022/03/17 03:03:08;;;;;;;7.15;3.80;;;;;;;-4.46;44.27;101803.31;5030592;28;20052;-65
2022/03/17 03:05:36;;;;;;;13.82;4.00;;;;;;;-4.51;44.80;101811.13;5029369;28;20054;-65
2022/03/17 03:08:03;;;;;;;10.35;3.60;;;;;;;-4.54;44.57;101812.34;5030211;28;20076;-65
2022/03/17 03:10:31;;;;;;;7.88;3.60;;;;;;;-4.57;44.75;101814.56;5026027;28;20536;-65
2022/03/17 03:12:58;;;;;;;10.45;4.03;;;;;;;-4.59;44.46;101824.78;5030443;28;20097;-65
2022/03/17 03:15:26;;;;;;;11.20;3.17;;;;;;;-4.62;44.52;101822.44;5028800;28;20145;-65
2022/03/17 03:17:54;;;;;;;10.52;4.30;;;;;;;-4.62;45.06;101825.97;5030264;28;20397;-65
2022/03/17 03:20:23;;;;;;;9.70;3.85;;;;;;;-4.61;44.36;101826.81;5029099;28;20089;-65
2022/03/17 03:22:50;;;;;;;7.35;4.03;;;;;;;-4.61;44.51;101826.81;5026816;28;20054;-67
2022/03/17 03:25:17;;;;;;;11.60;4.32;;;;;;;-4.57;44.60;101825.44;5016682;28;20050;-65
2022/03/17 03:27:44;;;;;;;12.70;3.50;;;;;;;-4.54;44.44;101827.78;5033352;28;20041;-66
2022/03/17 03:30:13;;;;;;;11.65;4.43;;;;;;;-4.53;44.34;101824.06;5033447;28;20064;-66
2022/03/17 03:32:42;;;;;;;8.32;3.90;;;;;;;-4.55;44.20;101824.25;5027424;28;20576;-65
2022/03/17 03:37:55;;;;;;;8.38;4.00;;;;;;;-4.57;44.05;101834.44;5030692;28;20124;-65
2022/03/17 03:40:22;;;;;;;13.95;4.07;;;;;;;-4.57;44.01;101834.44;5032549;28;20059;-65
2022/03/17 03:42:49;;;;;;;13.15;4.15;;;;;;;-4.55;44.21;101836.97;5016216;28;20103;-66
2022/03/17 03:45:16;;;;;;;9.10;3.55;;;;;;;-4.54;44.35;101834.06;5032966;28;20054;-66
2022/03/17 03:47:43;;;;;;;11.60;4.10;;;;;;;-4.53;44.59;101835.75;5032344;28;20440;-67
2022/03/17 03:50:11;;;;;;;14.05;4.75;;;;;;;-4.51;44.31;101843.72;5028463;28;20069;-65
2022/03/17 03:52:38;;;;;;;15.65;3.85;;;;;;;-4.51;44.08;101857.31;5032000;28;20467;-64
2022/03/17 03:55:05;;;;;;;13.45;4.55;;;;;;;-4.47;43.58;101847.78;5016698;28;20045;-65
2022/03/17 03:57:32;;;;;;;11.75;4.13;;;;;;;-4.41;44.03;101852.50;5032022;28;20099;-66
2022/03/17 03:59:59;;;;;;;11.57;4.50;;;;;;;-4.40;44.22;101851.47;5032970;28;20539;-65
2022/03/17 04:02:26;;;;;;;10.68;4.85;;;;;;;-4.42;44.13;101858.94;5031906;28;20088;-65
2022/03/17 04:04:53;;;;;;;12.02;4.15;;;;;;;-4.47;44.35;101845.91;5032841;28;20524;-65
2022/03/17 04:07:20;;;;;;;9.75;3.92;;;;;;;-4.37;44.34;101860.13;5031788;28;20632;-66
2022/03/17 04:09:47;;;;;;;10.95;4.53;;;;;;;-4.31;43.91;101866.69;5032818;28;20132;-65
2022/03/17 04:12:15;;;;;;;12.20;3.95;;;;;;;-4.25;43.78;101871.41;5032007;28;20448;-64
2022/03/17 04:14:42;;;;;;;9.52;4.50;;;;;;;-4.23;43.86;101877.50;5032846;28;20440;-65
2022/03/17 04:17:14;;;;;;;12.13;4.70;;;;;;;-4.20;44.20;101888.84;5013619;28;20464;-65
2022/03/17 04:19:41;;;;;;;8.65;3.70;;;;;;;-4.18;43.48;101883.22;5032812;28;20424;-66
2022/03/17 04:22:08;;;;;;;12.25;4.47;;;;;;;-4.17;43.88;101884.94;5032052;28;20129;-66
2022/03/17 04:24:35;;;;;;;10.15;4.65;;;;;;;-4.19;44.02;101878.84;5032602;28;20057;-65
2022/03/17 04:27:02;;;;;;;7.40;3.42;;;;;;;-4.15;43.87;101882.88;5032624;28;20049;-65
2022/03/17 04:29:29;;;;;;;12.02;4.32;;;;;;;-4.14;43.97;101884.59;5032042;28;20452;-65
2022/03/17 04:31:56;;;;;;;11.32;4.50;;;;;;;-4.05;43.55;101883.50;5031865;28;20057;-65
2022/03/17 04:34:23;;;;;;;12.82;4.38;;;;;;;-3.94;43.45;101880.34;5030107;28;20552;-65
2022/03/17 04:36:50;;;;;;;12.88;4.45;;;;;;;-3.86;43.63;101892.00;5029928;28;20132;-66
2022/03/17 04:39:17;;;;;;;8.30;4.18;;;;;;;-3.69;43.27;101892.72;5030853;28;20061;-64
2022/03/17 04:41:44;;;;;;;12.38;4.65;;;;;;;-3.59;42.92;101896.00;5032511;28;20144;-65
2022/03/17 04:44:13;;;;;;;9.52;4.38;;;;;;;-3.55;42.68;101893.78;5030665;28;20144;-65
2022/03/17 04:46:40;;;;;;;10.70;4.05;;;;;;;-3.51;42.66;101895.97;5031881;28;20064;-65
2022/03/17 04:49:09;;;;;;;13.25;4.43;;;;;;;-3.35;42.85;101903.94;5035882;28;20049;-66
2022/03/17 04:51:36;;;;;;;13.35;4.80;;;;;;;-3.28;42.66;101904.06;5032285;28;20397;-66
2022/03/17 04:54:04;;;;;;;13.30;4.00;;;;;;;-3.19;42.13;101908.41;5014492;28;20049;-65
2022/03/17 04:56:31;;;;;;;9.52;3.10;;;;;;;-3.13;41.71;101910.38;5032208;28;20390;-66
2022/03/17 04:58:58;;;;;;;13.90;3.85;;;;;;;-3.07;42.08;101918.66;5031112;28;20053;-66
2022/03/17 05:01:25;;;;;;;8.48;3.65;;;;;;;-3.04;41.19;101912.81;5028642;28;20141;-65
2022/03/17 05:03:52;;;;;;;9.10;3.75;;;;;;;-3.01;41.47;101914.31;5014413;28;20053;-65
2022/03/17 05:06:19;;;;;;;7.90;3.58;;;;;;;-2.98;40.46;101906.63;5030766;28;20049;-65
2022/03/17 05:08:46;;;;;;;20.25;8.20;;;;;;;-2.92;41.09;101916.78;5026924;28;20135;-65
2022/03/17 05:11:14;;;;;;;14.38;3.92;;;;;;;-2.81;40.53;101902.66;5030620;28;20096;-66
2022/03/17 05:13:43;;;;;;;14.48;3.90;;;;;;;-2.52;40.55;101919.00;5032208;28;20386;-67
2022/03/17 05:16:10;;;;;;;25.40;4.55;;;;;;;-2.30;39.88;101918.03;5030529;28;20512;-65
2022/03/17 05:18:37;;;;;;;12.50;3.67;;;;;;;-2.10;39.86;101921.81;5031661;28;20054;-65
2022/03/17 05:21:05;;;;;;;11.15;4.15;;;;;;;-1.81;39.51;101917.31;5030411;28;20428;-65
2022/03/17 05:23:33;;;;;;;9.57;3.88;;;;;;;-1.43;38.84;101915.97;5032229;28;20049;-66
2022/03/17 05:26:01;;;;;;;11.85;4.70;;;;;;;-0.56;36.89;101909.88;5030322;28;20077;-66
2022/03/17 05:28:28;;;;;;;7.95;3.88;;;;;;;-0.22;36.11;101928.94;5031545;28;20069;-65
2022/03/17 05:30:55;;;;;;;10.10;4.55;;;;;;;0.17;35.43;101920.03;5030769;28;20037;-65
2022/03/17 05:33:22;;;;;;;13.73;4.32;;;;;;;1.02;34.42;101924.50;5030701;28;20448;-65
2022/03/17 05:35:49;;;;;;;11.65;4.32;;;;;;;1.65;33.42;101914.63;5022945;28;20168;-65
2022/03/17 05:38:16;;;;;;;14.98;5.43;;;;;;;2.09;33.12;101913.78;5031359;28;20487;-66
2022/03/17 05:40:44;;;;;;;10.50;4.93;;;;;;;3.41;30.94;101907.84;5030479;28;20083;-65
2022/03/17 05:43:11;;;;;;;9.95;4.20;;;;;;;4.37;29.54;101909.56;5028075;28;20049;-65
2022/03/17 05:45:40;;;;;;;6.57;3.63;;;;;;;3.48;30.17;101909.47;5030349;28;20409;-65
2022/03/17 05:48:08;;;;;;;14.88;3.88;;;;;;;2.93;31.74;101915.09;5029895;28;20092;-66
2022/03/17 05:50:40;;;;;;;14.15;4.82;;;;;;;3.75;30.86;101909.97;5026163;28;20568;-65
2022/03/17 05:53:09;;;;;;;13.60;3.88;;;;;;;4.66;29.86;101918.84;5030154;28;20053;-65
2022/03/17 05:55:36;;;;;;;11.38;4.03;;;;;;;6.07;27.32;101917.50;5030179;28;20144;-65
2022/03/17 05:58:05;;;;;;;15.52;4.15;;;;;;;6.28;27.23;101922.34;5011695;28;20053;-65
2022/03/17 06:00:33;;;;;;;8.82;3.08;;;;;;;4.80;28.61;101932.19;5030859;28;20488;-65
2022/03/17 06:03:00;;;;;;;11.95;3.78;;;;;;;3.70;29.76;101929.09;5028192;28;20049;-65
2022/03/17 06:05:28;;;;;;;10.18;4.50;;;;;;;3.61;29.72;101924.94;5030259;28;20053;-66
2022/03/17 06:08:00;;;;;;;6.47;3.33;;;;;;;5.82;27.77;101930.78;5028214;28;20080;-65
2022/03/17 06:10:33;;;;;;;10.48;3.70;;;;;;;7.70;24.75;101919.78;5025642;28;20057;-65
2022/03/17 06:13:02;;;;;;;11.70;3.10;;;;;;;7.75;24.45;101921.78;5014089;28;20054;-64
2022/03/17 06:15:30;;;;;;;11.65;3.35;;;;;;;6.30;25.86;101920.16;5030828;28;20053;-64
2022/03/17 06:17:59;;;;;;;9.98;3.67;;;;;;;7.83;24.50;101930.50;5029916;28;20042;-64
2022/03/17 06:20:32;;;;;;;14.73;4.18;;;;;;;10.32;21.46;101916.28;5030616;28;20093;-65
2022/03/17 06:23:01;;;;;;;6.30;3.38;;;;;;;12.36;19.84;101924.75;5029578;28;20412;-65
2022/03/17 06:25:30;;;;;;;9.48;3.00;;;;;;;14.18;18.52;101930.47;5030659;28;20512;-65
2022/03/17 06:28:04;;;;;;;5.32;3.10;;;;;;;16.35;16.74;101932.97;5029407;28;20048;-64
2022/03/17 06:30:31;;;;;;;6.03;2.75;;;;;;;16.62;15.92;101928.50;5030631;28;20096;-65
2022/03/17 06:32:59;;;;;;;12.77;3.53;;;;;;;16.81;15.53;101929.22;5029589;28;20049;-65
2022/03/17 06:35:27;;;;;;;9.32;3.35;;;;;;;16.25;15.39;101924.78;5031160;28;20449;-65
2022/03/17 06:37:59;;;;;;;5.72;2.88;;;;;;;16.49;15.48;101929.38;5013698;28;20037;-65
2022/03/17 06:40:27;;;;;;;9.00;2.90;;;;;;;16.05;14.89;101933.59;5023923;28;20081;-64
2022/03/17 06:42:55;;;;;;;6.18;3.00;;;;;;;15.11;15.51;101931.41;5029383;28;20076;-65
2022/03/17 06:45:24;;;;;;;8.00;2.80;;;;;;;16.32;14.56;101933.59;5030694;28;20062;-65
2022/03/17 06:47:51;;;;;;;15.13;3.28;;;;;;;16.89;13.70;101936.88;5029352;28;20045;-65
2022/03/17 06:50:22;;;;;;;6.88;2.60;;;;;;;15.79;14.41;101935.28;5028947;28;20068;-64
2022/03/17 06:52:50;;;;;;;8.65;3.25;;;;;;;13.78;15.03;101951.34;5027997;28;20046;-64
2022/03/17 06:55:18;;;;;;;10.82;3.03;;;;;;;12.29;16.26;101946.53;5029339;28;20467;-65
2022/03/17 06:57:45;;;;;;;9.60;3.05;;;;;;;12.25;16.50;101944.63;5026334;28;21182;-65
2022/03/17 07:00:15;;;;;;;15.73;5.57;;;;;;;10.66;17.19;101931.38;5032039;28;20132;-64
2022/03/17 07:02:42;;;;;;;18.83;5.03;;;;;;;9.74;17.68;101940.72;5028303;28;20072;-65
2022/03/17 07:05:09;;;;;;;9.75;2.80;;;;;;;9.00;18.04;101949.03;5027436;28;20057;-64
2022/03/17 07:07:37;;;;;;;6.63;2.55;;;;;;;8.56;18.22;101943.91;5031792;28;20054;-65
2022/03/17 07:10:08;;;;;;;11.25;2.72;;;;;;;8.72;17.67;101949.34;5025681;28;20048;-65
2022/03/17 07:12:38;;;;;;;12.35;3.63;;;;;;;10.13;17.07;101936.50;5024979;28;20140;-65
2022/03/17 07:15:05;;;;;;;13.13;2.65;;;;;;;10.26;16.62;101941.56;5022317;28;20060;-65
2022/03/17 07:17:39;;;;;;;7.15;2.67;;;;;;;9.69;16.61;101944.31;5025831;28;20045;-67
2022/03/17 07:20:08;;;;;;;8.43;2.70;;;;;;;9.55;16.99;101953.38;5023804;28;20610;-65
2022/03/17 07:22:36;;;;;;;10.68;2.45;;;;;;;9.62;16.64;101956.78;5030145;28;20390;-65
2022/03/17 07:25:04;;;;;;;7.25;2.78;;;;;;;10.05;15.98;101953.66;5031901;28;20141;-66
2022/03/17 07:27:32;;;;;;;11.30;2.65;;;;;;;9.47;16.81;101962.22;5028165;28;20046;-66
2022/03/17 07:29:59;;;;;;;9.88;2.35;;;;;;;9.81;16.61;101955.22;5022922;28;20132;-66
2022/03/17 07:32:26;;;;;;;14.35;3.33;;;;;;;10.92;16.08;101946.19;5026017;28;20055;-65
2022/03/17 07:34:53;;;;;;;6.72;2.83;;;;;;;12.34;14.97;101945.69;5021868;28;20045;-65
2022/03/17 07:37:20;;;;;;;10.60;3.60;;;;;;;12.83;13.87;101949.34;5021422;28;20129;-68
2022/03/17 07:39:48;;;;;;;12.45;3.13;;;;;;;12.06;14.88;101963.13;5019846;28;20041;-66
2022/03/17 07:42:14;;;;;;;12.02;3.13;;;;;;;11.06;14.89;101964.03;5021006;28;20120;-67
2022/03/17 07:44:42;;;;;;;7.45;2.85;;;;;;;9.62;15.58;101957.59;5029119;28;20056;-66
2022/03/17 07:47:09;;;;;;;7.95;2.90;;;;;;;8.43;16.40;101961.78;5032544;28;20136;-66
2022/03/17 07:49:37;;;;;;;5.63;2.13;;;;;;;7.09;16.78;101967.00;5016106;28;20084;-67
2022/03/17 07:52:06;;;;;;;7.45;2.47;;;;;;;6.50;17.75;101976.72;5033071;28;20099;-66
2022/03/17 07:54:33;;;;;;;10.45;2.80;;;;;;;7.05;17.30;101965.84;5031697;28;20086;-66
2022/03/17 07:57:03;;;;;;;6.53;2.50;;;;;;;7.63;16.48;101976.44;5013238;28;20100;-67
2022/03/17 07:59:32;;;;;;;6.82;2.50;;;;;;;8.62;15.76;101968.63;5022728;28;20053;-67
2022/03/17 08:01:59;;;;;;;9.70;2.17;;;;;;;9.02;14.90;101980.16;5032146;28;20045;-66
2022/03/17 08:04:26;;;;;;;8.38;2.95;;;;;;;10.07;14.28;101973.75;5023133;28;20515;-66
2022/03/17 08:07:00;;;;;;;7.38;2.10;;;;;;;10.80;14.36;101976.22;5031781;28;20508;-67
2022/03/17 08:09:28;;;;;;;9.75;2.20;;;;;;;12.22;13.34;101971.16;5024719;28;20124;-66
2022/03/17 08:11:56;;;;;;;4.53;2.25;;;;;;;12.83;13.17;101980.06;5030916;28;20049;-66
2022/03/17 08:14:23;;;;;;;7.85;2.40;;;;;;;13.00;12.89;101985.28;5014870;28;20057;-66
2022/03/17 08:16:50;;;;;;;8.18;3.40;;;;;;;12.97;12.96;101985.84;5031854;28;20050;-67
2022/03/17 08:19:17;;;;;;;8.15;3.05;;;;;;;13.40;12.63;101979.38;5023572;28;20077;-65
2022/03/17 08:21:44;;;;;;;6.38;2.45;;;;;;;14.18;12.38;101980.88;5030323;28;20132;-66
2022/03/17 08:24:11;;;;;;;8.02;2.05;;;;;;;14.28;11.62;101994.78;5031629;28;20053;-66
2022/03/17 08:26:38;;;;;;;22.13;3.17;;;;;;;14.10;11.41;101981.50;5027348;28;20069;-66
2022/03/17 08:29:06;;;;;;;10.18;2.35;;;;;;;14.51;11.40;101982.72;5028956;28;20149;-67
2022/03/17 08:31:33;;;;;;;9.95;3.05;;;;;;;16.16;10.93;101973.56;5026450;28;20135;-66
2022/03/17 08:34:00;;;;;;;14.85;2.53;;;;;;;17.24;10.08;101966.97;5031820;28;20077;-66
2022/03/17 08:36:27;;;;;;;5.78;2.58;;;;;;;18.33;9.81;101987.72;5019455;28;20085;-66
2022/03/17 08:38:55;;;;;;;7.53;3.25;;;;;;;19.83;9.12;101982.94;5031189;28;20120;-65
2022/03/17 08:41:22;;;;;;;5.60;2.67;;;;;;;20.67;9.11;101976.50;5023804;28;20519;-66
2022/03/17 08:43:51;;;;;;;17.23;3.13;;;;;;;21.34;8.82;101971.53;5025200;28;20132;-66
2022/03/17 08:49:24;;;;;;;8.05;2.55;;;;;;;24.84;8.09;101983.97;5030030;28;20299;-67
2022/03/17 08:51:56;;;;;;;7.22;2.38;;;;;;;25.87;7.22;101974.47;5028817;28;20139;-66
2022/03/17 08:54:25;;;;;;;10.65;3.85;;;;;;;25.32;7.65;101972.09;5029329;28;20053;-67
2022/03/17 08:56:59;;;;;;;9.23;2.53;;;;;;;24.65;7.56;101981.03;5019803;28;20053;-66
2022/03/17 08:59:30;;;;;;;10.30;2.72;;;;;;;23.54;7.77;101974.72;5022243;28;20454;-66
2022/03/17 09:02:01;;;;;;;14.70;3.20;;;;;;;23.14;8.33;101977.53;5028464;28;20060;-65
2022/03/17 09:04:29;;;;;;;5.82;2.78;;;;;;;23.66;7.93;101976.66;5029364;28;20115;-66
2022/03/17 09:07:00;;;;;;;11.48;2.80;;;;;;;24.70;7.51;101983.63;5021648;28;20068;-66
2022/03/17 09:09:37;;;;;;;9.98;2.67;;;;;;;24.36;7.25;101981.47;5030124;28;20492;-67
2022/03/17 09:12:06;;;;;;;12.15;3.38;;;;;;;24.94;7.13;101986.25;5028391;28;20436;-66
2022/03/17 09:14:44;;;;;;;7.90;2.95;;;;;;;25.86;6.87;101987.09;5028579;28;20092;-65
2022/03/17 09:17:11;;;;;;;68.70;30.52;;;;;;;26.34;6.18;101989.25;5030199;28;20060;-65
2022/03/17 09:19:38;;;;;;;6.68;2.78;;;;;;;25.80;6.30;101982.06;5028631;28;20049;-65
2022/03/17 09:22:08;;;;;;;8.52;3.28;;;;;;;25.55;6.47;101980.72;5023020;28;20071;-65
2022/03/17 09:24:34;;;;;;;;;;;;;;;25.22;6.60;101981.19;5031047;28;20385;-68
2022/03/17 09:27:01;;;;;;;7.85;2.80;;;;;;;25.42;6.54;101982.91;5026941;28;20340;-66
2022/03/17 09:29:29;;;;;;;5.97;2.83;;;;;;;24.75;6.60;101986.19;5024338;28;20595;-65
2022/03/17 09:31:58;;;;;;;7.20;2.67;;;;;;;25.47;6.22;101979.75;5029001;28;20141;-65
2022/03/17 09:34:26;;;;;;;9.27;2.90;;;;;;;25.81;6.16;101975.97;5022997;28;20041;-65
2022/03/17 09:36:53;;;;;;;7.80;3.13;;;;;;;25.89;6.47;101977.78;5029341;28;20083;-65
2022/03/17 09:42:05;;;;;;;7.90;2.90;;;;;;;27.34;5.24;101992.56;5021690;28;20147;-65
2022/03/17 09:44:33;;;;;;;5.10;2.38;;;;;;;26.70;5.42;101979.28;5025685;28;20748;-66
2022/03/17 09:47:03;;;;;;;10.20;2.42;;;;;;;25.11;5.82;101971.59;5019485;28;20133;-66
2022/03/17 09:49:30;;;;;;;12.50;5.03;;;;;;;21.66;6.98;101967.91;5021952;28;20049;-66
2022/03/17 09:52:03;;;;;;;10.73;3.35;;;;;;;17.77;8.76;101970.69;5013329;28;20140;-65
2022/03/17 09:54:35;;;;;;;6.97;2.63;;;;;;;15.18;10.11;101979.50;5030774;28;20570;-65
2022/03/17 09:57:02;;;;;;;10.00;2.42;;;;;;;13.74;10.94;101974.63;5011516;28;20049;-65
2022/03/17 09:59:30;;;;;;;12.75;2.40;;;;;;;11.88;12.06;101978.50;5033818;28;20137;-66
2022/03/17 10:01:58;;;;;;;7.18;3.30;;;;;;;10.69;12.77;101974.56;5023145;28;20057;-64
2022/03/17 10:04:29;;;;;;;7.55;2.53;;;;;;;9.91;12.96;101986.69;5022938;28;20041;-66
2022/03/17 10:06:58;;;;;;;9.38;2.72;;;;;;;8.93;13.38;101976.19;5020856;28;20550;-65
2022/03/17 10:09:27;;;;;;;4.90;2.83;;;;;;;8.32;13.72;101978.56;5028676;28;20505;-65
2022/03/17 10:12:11;;;;;;;6.10;2.15;;;;;;;7.70;14.32;101971.59;5028675;28;20046;-65
2022/03/17 10:14:39;;;;;;;14.50;4.18;;;;;;;6.94;14.70;101975.88;5028157;28;20084;-64
2022/03/17 10:17:28;;;;;;;23.17;3.30;;;;;;;6.61;15.13;101974.97;5028636;28;20073;-65
2022/03/17 10:20:22;;;;;;;11.27;2.17;;;;;;;6.43;16.11;101973.25;5020718;28;20045;-64
2022/03/17 10:22:51;;;;;;;9.27;3.20;;;;;;;6.28;15.69;101974.88;5026843;28;20049;-65
2022/03/17 10:25:26;;;;;;;6.10;2.65;;;;;;;6.12;16.31;101970.09;5028650;28;20053;-65
2022/03/17 10:27:55;;;;;;;7.95;2.40;;;;;;;5.70;16.92;101972.19;5025941;28;20439;-66
2022/03/17 10:30:35;;;;;;;7.20;1.63;;;;;;;5.70;17.12;101972.19;5028072;28;20108;-66
2022/03/17 10:33:14;;;;;;;6.75;1.88;;;;;;;5.45;16.68;101975.19;5032467;28;20051;-64
2022/03/17 10:35:49;;;;;;;13.32;2.38;;;;;;;5.25;16.73;101977.50;5027613;28;20095;-65
2022/03/17 10:38:19;;;;;;;7.55;1.85;;;;;;;5.09;16.88;101969.91;5012802;28;20079;-65
2022/03/17 10:41:03;;;;;;;5.20;2.30;;;;;;;4.94;17.19;101977.78;5030458;28;20472;-65
2022/03/17 10:43:31;;;;;;;12.38;1.95;;;;;;;4.70;17.49;101969.69;5029989;28;20053;-65
2022/03/17 10:46:12;;;;;;;10.52;2.63;;;;;;;4.67;17.70;101968.25;5033014;28;20069;-65
2022/03/17 10:48:59;;;;;;;10.93;1.80;;;;;;;4.70;17.66;101970.53;5031565;28;20107;-64
2022/03/17 10:51:45;;;;;;;5.75;2.25;;;;;;;4.51;18.37;101965.31;5033311;28;20436;-65
2022/03/17 10:54:20;;;;;;;8.75;1.73;;;;;;;4.17;18.70;101964.06;5027526;28;20124;-66
2022/03/17 10:57:01;;;;;;;4.28;1.50;;;;;;;4.09;18.61;101961.66;5021723;28;20426;-66
2022/03/17 10:59:43;;;;;;;12.40;2.10;;;;;;;3.99;18.80;101964.09;5030548;28;20053;-66
2022/03/17 11:02:12;;;;;;;3.53;1.90;;;;;;;4.00;18.95;101960.28;5032117;28;20049;-66
2022/03/17 11:04:41;;;;;;;5.38;2.00;;;;;;;3.75;19.11;101956.78;5028548;28;20408;-65
2022/03/17 11:07:13;;;;;;;3.97;2.20;;;;;;;3.65;18.76;101959.22;5020944;28;20103;-66
2022/03/17 11:09:46;;;;;;;6.22;2.38;;;;;;;3.48;19.39;101958.13;5018958;28;20080;-65
2022/03/17 11:12:17;;;;;;;30.90;2.97;;;;;;;3.49;19.73;101951.53;5025058;28;20144;-66
2022/03/17 11:14:53;;;;;;;6.22;1.90;;;;;;;3.53;19.75;101950.03;5033013;28;20084;-66
2022/03/17 11:17:31;;;;;;;6.07;2.42;;;;;;;3.57;19.48;101948.50;5031350;28;20069;-66
2022/03/17 11:20:05;;;;;;;7.60;2.67;;;;;;;3.62;19.79;101943.16;5030391;28;20080;-66
2022/03/17 11:22:33;;;;;;;3.95;1.88;;;;;;;3.54;19.64;101943.47;5023529;28;20068;-66
2022/03/17 11:25:20;;;;;;;5.03;2.13;;;;;;;3.54;19.87;101940.72;5030829;28;20132;-66
2022/03/17 11:27:49;;;;;;;9.55;2.40;;;;;;;3.52;20.12;101946.44;5024740;28;20413;-66
2022/03/17 11:30:17;;;;;;;16.35;2.65;;;;;;;3.61;20.34;101952.47;5023471;28;20057;-65
2022/03/17 11:32:58;;;;;;;4.55;2.58;;;;;;;3.65;20.14;101948.22;5031520;28;20045;-65
2022/03/17 11:35:29;;;;;;;5.28;2.10;;;;;;;3.42;20.14;101950.78;5028678;28;20058;-65
2022/03/17 11:38:17;;;;;;;6.93;2.13;;;;;;;3.28;20.36;101952.81;5028863;28;20044;-65
2022/03/17 11:41:09;;;;;;;8.27;2.20;;;;;;;3.23;20.99;101954.59;5028693;28;20469;-65
2022/03/17 11:43:40;;;;;;;9.73;2.55;;;;;;;3.21;20.69;101951.22;5026075;28;20073;-65
2022/03/17 11:46:17;;;;;;;6.05;2.00;;;;;;;3.21;20.41;101940.22;5030902;28;20088;-64
2022/03/17 11:48:47;;;;;;;6.50;2.03;;;;;;;3.23;20.37;101949.09;5029297;28;20057;-63